createdAt,value
2018-11-12T00:01:34.763Z,6.70
2018-11-12T00:04:03.454Z,6.70
2018-11-12T00:06:32.237Z,6.70
2018-11-12T00:09:00.876Z,6.70
2018-11-12T00:11:29.474Z,6.70
2018-11-12T00:13:58.176Z,6.70
2018-11-12T00:16:26.898Z,6.70
2018-11-12T00:18:55.470Z,6.70
2018-11-12T00:21:24.142Z,6.70
2018-11-12T00:23:52.740Z,6.60
2018-11-12T00:26:21.380Z,6.60
2018-11-12T00:28:50.079Z,6.60
2018-11-12T00:31:18.827Z,6.60
2018-11-12T00:33:47.488Z,6.60
2018-11-12T00:36:16.299Z,6.60
2018-11-12T00:38:44.939Z,6.50
2018-11-12T00:41:13.641Z,6.50
2018-11-12T00:43:42.265Z,6.50
2018-11-12T00:46:10.903Z,6.50
2018-11-12T00:48:39.624Z,6.50
2018-11-12T00:51:08.340Z,6.50
2018-11-12T00:53:37.060Z,6.50
2018-11-12T00:56:06.142Z,6.40
2018-11-12T00:58:34.715Z,6.40
2018-11-12T01:01:03.445Z,6.40
2018-11-12T01:03:32.111Z,6.40
2018-11-12T01:06:00.633Z,6.30
2018-11-12T01:08:29.432Z,6.30
2018-11-12T01:10:58.347Z,6.30
2018-11-12T01:13:27.330Z,6.30
2018-11-12T01:15:56.463Z,6.30
2018-11-12T01:18:25.292Z,6.20
2018-11-12T01:20:53.787Z,6.20
2018-11-12T01:23:22.286Z,6.20
2018-11-12T01:25:50.942Z,6.20
2018-11-12T01:28:19.544Z,6.10
2018-11-12T01:30:48.223Z,6.10
2018-11-12T01:33:16.737Z,5.90
2018-11-12T01:35:45.280Z,5.80
2018-11-12T01:38:13.759Z,5.80
2018-11-12T01:40:42.320Z,5.80
2018-11-12T01:43:10.815Z,5.80
2018-11-12T01:45:40.212Z,5.90
2018-11-12T01:48:08.778Z,5.90
2018-11-12T01:50:37.352Z,5.90
2018-11-12T01:53:06.139Z,5.90
2018-11-12T01:55:34.759Z,6.00
2018-11-12T01:58:03.329Z,6.00
2018-11-12T02:00:31.887Z,6.00
2018-11-12T02:03:00.430Z,6.00
2018-11-12T02:05:28.970Z,6.00
2018-11-12T02:07:57.528Z,5.90
2018-11-12T02:10:26.233Z,5.90
2018-11-12T02:12:54.803Z,5.90
2018-11-12T02:15:23.403Z,5.90
2018-11-12T02:17:51.966Z,5.90
2018-11-12T02:20:21.356Z,5.90
2018-11-12T02:22:50.479Z,5.90
2018-11-12T02:25:19.378Z,6.00
2018-11-12T02:27:47.961Z,6.00
2018-11-12T02:30:21.727Z,6.00
2018-11-12T02:32:50.294Z,6.00
2018-11-12T02:35:18.851Z,6.00
2018-11-12T02:37:47.399Z,6.00
2018-11-12T02:40:15.939Z,6.00
2018-11-12T02:42:44.518Z,6.10
2018-11-12T02:45:13.922Z,6.10
2018-11-12T02:47:43.327Z,6.10
2018-11-12T02:50:15.173Z,6.10
2018-11-12T02:52:43.844Z,6.10
2018-11-12T02:55:13.493Z,6.10
2018-11-12T02:57:42.952Z,6.10
2018-11-12T03:00:14.439Z,6.10
2018-11-12T03:02:43.536Z,6.10
2018-11-12T03:05:12.472Z,6.00
2018-11-12T03:07:41.356Z,6.00
2018-11-12T03:10:13.021Z,6.00
2018-11-12T03:12:41.854Z,6.00
2018-11-12T03:15:11.869Z,6.00
2018-11-12T03:17:41.271Z,5.90
2018-11-12T03:20:11.799Z,5.90
2018-11-12T03:22:40.395Z,5.90
2018-11-12T03:25:09.812Z,5.90
2018-11-12T03:27:38.484Z,5.90
2018-11-12T03:30:08.430Z,5.90
2018-11-12T03:32:37.031Z,5.90
2018-11-12T03:35:06.288Z,5.90
2018-11-12T03:37:34.851Z,6.00
2018-11-12T03:40:03.622Z,6.00
2018-11-12T03:42:32.143Z,6.00
2018-11-12T03:45:00.695Z,6.00
2018-11-12T03:47:29.322Z,6.00
2018-11-12T03:49:57.891Z,6.00
2018-11-12T03:52:26.483Z,6.00
2018-11-12T03:54:54.986Z,6.00
2018-11-12T03:57:23.510Z,6.00
2018-11-12T03:59:52.099Z,6.00
2018-11-12T04:02:21.582Z,6.10
2018-11-12T04:04:50.167Z,6.10
2018-11-12T04:07:18.667Z,6.20
2018-11-12T04:09:47.265Z,6.10
2018-11-12T04:12:15.771Z,6.20
2018-11-12T04:14:44.277Z,6.20
2018-11-12T04:17:12.936Z,6.30
2018-11-12T04:19:41.463Z,6.30
2018-11-12T04:22:10.000Z,6.30
2018-11-12T04:24:38.538Z,6.40
2018-11-12T04:27:07.146Z,6.40
2018-11-12T04:29:35.720Z,6.40
2018-11-12T04:32:04.408Z,6.40
2018-11-12T04:34:32.999Z,6.40
2018-11-12T04:37:01.632Z,6.40
2018-11-12T04:39:30.178Z,6.50
2018-11-12T04:41:58.757Z,6.50
2018-11-12T04:44:27.337Z,6.50
2018-11-12T04:46:55.851Z,6.60
2018-11-12T04:49:24.392Z,6.50
2018-11-12T04:51:52.960Z,6.60
2018-11-12T04:54:21.437Z,6.60
2018-11-12T04:56:49.906Z,6.50
2018-11-12T04:59:18.410Z,6.50
2018-11-12T05:01:46.903Z,6.50
2018-11-12T05:04:15.371Z,6.40
2018-11-12T05:06:43.998Z,6.30
2018-11-12T05:09:12.550Z,6.30
2018-11-12T05:11:41.310Z,6.40
2018-11-12T05:14:09.837Z,6.40
2018-11-12T05:16:38.376Z,6.40
2018-11-12T05:19:06.933Z,6.40
2018-11-12T05:21:35.466Z,6.40
2018-11-12T05:24:03.963Z,6.40
2018-11-12T05:26:32.530Z,6.40
2018-11-12T05:29:01.010Z,6.40
2018-11-12T05:31:29.454Z,6.50
2018-11-12T05:33:58.015Z,6.50
2018-11-12T05:36:26.463Z,6.50
2018-11-12T05:38:54.914Z,6.40
2018-11-12T05:41:23.465Z,6.40
2018-11-12T05:43:51.934Z,6.50
2018-11-12T05:46:20.541Z,6.40
2018-11-12T05:48:49.041Z,6.40
2018-11-12T05:51:17.573Z,6.30
2018-11-12T05:53:46.073Z,6.30
2018-11-12T05:56:14.533Z,6.30
2018-11-12T05:58:43.003Z,6.30
2018-11-12T06:01:11.514Z,6.30
2018-11-12T06:03:39.959Z,6.30
2018-11-12T06:06:08.448Z,6.40
2018-11-12T06:08:36.966Z,6.40
2018-11-12T06:11:05.706Z,6.40
2018-11-12T06:13:34.173Z,6.40
2018-11-12T06:16:02.695Z,6.40
2018-11-12T06:18:31.241Z,6.40
2018-11-12T06:20:59.741Z,6.40
2018-11-12T06:23:28.240Z,6.40
2018-11-12T06:25:56.778Z,6.40
2018-11-12T06:28:25.257Z,6.50
2018-11-12T06:30:53.722Z,6.50
2018-11-12T06:33:22.248Z,6.50
2018-11-12T06:35:50.700Z,6.60
2018-11-12T06:38:19.183Z,6.60
2018-11-12T06:40:47.722Z,6.60
2018-11-12T06:43:16.228Z,6.60
2018-11-12T06:45:44.750Z,6.70
2018-11-12T06:48:13.222Z,6.70
2018-11-12T06:50:41.666Z,6.80
2018-11-12T06:53:10.250Z,6.80
2018-11-12T06:55:38.773Z,6.90
2018-11-12T06:58:07.241Z,6.90
2018-11-12T07:00:35.965Z,7.00
2018-11-12T07:03:04.559Z,7.00
2018-11-12T07:05:33.298Z,7.00
2018-11-12T07:08:01.878Z,7.10
2018-11-12T07:10:30.643Z,7.20
2018-11-12T07:12:59.898Z,7.20
2018-11-12T07:15:29.093Z,7.20
2018-11-12T07:17:57.770Z,7.30
2018-11-12T07:20:27.176Z,7.40
2018-11-12T07:22:55.732Z,7.40
2018-11-12T07:25:26.987Z,9.90
2018-11-12T07:27:55.538Z,13.50
2018-11-12T07:30:25.318Z,15.50
2018-11-12T07:32:54.828Z,17.20
2018-11-12T07:35:23.599Z,18.90
2018-11-12T07:37:53.207Z,20.10
2018-11-12T07:40:22.070Z,21.00
2018-11-12T07:42:50.554Z,21.60
2018-11-12T07:45:23.195Z,22.50
2018-11-12T07:47:52.472Z,23.30
2018-11-12T07:50:22.274Z,24.00
2018-11-12T07:52:50.797Z,24.60
2018-11-12T07:55:20.911Z,25.30
2018-11-12T07:57:50.692Z,26.00
2018-11-12T08:00:20.865Z,26.70
2018-11-12T08:02:50.301Z,26.90
2018-11-12T08:05:18.858Z,27.30
2018-11-12T08:07:47.454Z,27.10
2018-11-12T08:10:17.300Z,26.70
2018-11-12T08:12:46.105Z,27.10
2018-11-12T08:15:15.922Z,27.20
2018-11-12T08:17:44.608Z,27.00
2018-11-12T08:20:18.367Z,27.70
2018-11-12T08:22:48.036Z,27.70
2018-11-12T08:25:16.517Z,27.60
2018-11-12T08:27:45.391Z,27.70
2018-11-12T08:30:16.110Z,27.80
2018-11-12T08:32:45.502Z,28.00
2018-11-12T08:35:14.431Z,27.70
2018-11-12T08:37:43.146Z,27.90
2018-11-12T08:40:14.079Z,28.00
2018-11-12T08:42:42.891Z,28.10
2018-11-12T08:45:11.714Z,27.70
2018-11-12T08:47:41.003Z,27.60
2018-11-12T08:50:11.386Z,27.00
2018-11-12T08:52:40.481Z,26.30
2018-11-12T08:55:10.683Z,25.40
2018-11-12T08:57:39.587Z,24.90
2018-11-12T09:00:09.526Z,23.90
2018-11-12T09:02:38.107Z,22.80
2018-11-12T09:05:07.618Z,22.30
2018-11-12T09:07:36.150Z,21.70
2018-11-12T09:10:05.664Z,21.00
2018-11-12T09:12:34.053Z,20.10
2018-11-12T09:15:02.566Z,19.40
2018-11-12T09:17:31.135Z,19.30
2018-11-12T09:20:00.330Z,19.30
2018-11-12T09:22:28.833Z,19.20
2018-11-12T09:24:58.168Z,19.20
2018-11-12T09:27:26.689Z,18.90
2018-11-12T09:29:55.193Z,18.90
2018-11-12T09:32:23.710Z,18.80
2018-11-12T09:34:52.383Z,18.70
2018-11-12T09:37:20.939Z,18.60
2018-11-12T09:39:51.851Z,18.60
2018-11-12T09:42:20.415Z,18.60
2018-11-12T09:44:48.968Z,18.20
2018-11-12T09:47:17.620Z,18.10
2018-11-12T09:49:46.081Z,18.10
2018-11-12T09:52:14.630Z,18.20
2018-11-12T09:54:43.348Z,18.30
2018-11-12T09:57:11.835Z,18.40
2018-11-12T09:59:40.310Z,18.20
2018-11-12T10:02:09.668Z,18.00
2018-11-12T10:04:39.078Z,18.10
2018-11-12T10:07:08.190Z,18.00
2018-11-12T10:09:35.807Z,17.80
2018-11-12T10:12:05.357Z,17.60
2018-11-12T10:14:34.877Z,17.40
2018-11-12T10:17:03.653Z,17.40
2018-11-12T10:19:29.571Z,17.30
2018-11-12T10:21:58.050Z,16.90
2018-11-12T10:24:26.574Z,16.90
2018-11-12T10:26:55.118Z,16.70
2018-11-12T10:29:23.626Z,16.40
2018-11-12T10:31:52.154Z,16.40
2018-11-12T10:34:20.639Z,16.30
2018-11-12T10:36:49.192Z,16.20
2018-11-12T10:39:17.731Z,16.10
2018-11-12T10:41:46.242Z,16.10
2018-11-12T10:44:14.803Z,16.00
2018-11-12T10:46:43.407Z,15.90
2018-11-12T10:49:11.881Z,15.80
2018-11-12T10:51:40.396Z,15.60
2018-11-12T10:54:08.968Z,15.70
2018-11-12T10:56:37.348Z,15.60
2018-11-12T10:59:06.039Z,15.60
2018-11-12T11:01:39.870Z,15.60
2018-11-12T11:04:13.789Z,15.50
2018-11-12T11:06:42.521Z,15.50
2018-11-12T11:09:11.075Z,15.50
2018-11-12T11:11:39.662Z,15.40
2018-11-12T11:14:08.143Z,15.40
2018-11-12T11:16:36.628Z,15.40
2018-11-12T11:19:05.358Z,15.30
2018-11-12T11:21:33.818Z,15.30
2018-11-12T11:24:02.370Z,15.30
2018-11-12T11:26:30.940Z,15.20
2018-11-12T11:28:59.450Z,15.10
2018-11-12T11:31:27.916Z,15.10
2018-11-12T11:33:56.467Z,15.10
2018-11-12T11:36:24.939Z,15.10
2018-11-12T11:38:53.514Z,15.10
2018-11-12T11:41:21.987Z,15.00
2018-11-12T11:43:50.475Z,15.00
2018-11-12T11:46:19.475Z,15.00
2018-11-12T11:48:48.127Z,14.90
2018-11-12T11:51:16.695Z,14.90
2018-11-12T11:53:45.203Z,14.90
2018-11-12T11:56:13.759Z,14.90
2018-11-12T11:58:42.244Z,14.90
2018-11-12T12:01:10.828Z,14.90
2018-11-12T12:03:39.618Z,14.90
2018-11-12T12:06:08.148Z,14.90
2018-11-12T12:08:36.736Z,14.90
2018-11-12T12:11:05.476Z,14.90
2018-11-12T12:13:34.090Z,14.90
2018-11-12T12:16:02.791Z,14.90
2018-11-12T12:18:31.340Z,14.80
2018-11-12T12:20:59.868Z,14.80
2018-11-12T12:23:28.378Z,14.90
2018-11-12T12:25:56.952Z,14.90
2018-11-12T12:28:25.447Z,14.90
2018-11-12T12:30:54.052Z,14.80
2018-11-12T12:33:22.626Z,14.80
2018-11-12T12:35:51.173Z,14.80
2018-11-12T12:38:19.634Z,14.70
2018-11-12T12:40:48.159Z,14.70
2018-11-12T12:43:16.622Z,14.80
2018-11-12T12:45:45.373Z,14.80
2018-11-12T12:48:13.660Z,14.80
2018-11-12T12:50:42.175Z,14.80
2018-11-12T12:53:10.769Z,14.80
2018-11-12T12:55:39.427Z,14.80
2018-11-12T12:58:07.960Z,14.70
2018-11-12T13:00:36.418Z,14.70
2018-11-12T13:03:05.292Z,14.70
2018-11-12T13:05:33.927Z,14.70
2018-11-12T13:08:02.430Z,14.70
2018-11-12T13:10:30.999Z,14.70
2018-11-12T13:12:59.594Z,14.60
2018-11-12T13:15:28.144Z,14.60
2018-11-12T13:17:56.710Z,14.50
2018-11-12T13:20:25.765Z,14.50
2018-11-12T13:22:54.409Z,14.50
2018-11-12T13:25:22.887Z,14.50
2018-11-12T13:27:51.430Z,14.50
2018-11-12T13:30:21.392Z,14.40
2018-11-12T13:32:50.287Z,14.40
2018-11-12T13:35:22.280Z,14.30
2018-11-12T13:37:50.752Z,14.30
2018-11-12T13:40:20.602Z,14.30
2018-11-12T13:42:50.796Z,14.20
2018-11-12T13:45:19.341Z,14.20
2018-11-12T13:47:47.872Z,14.10
2018-11-12T13:50:20.624Z,14.10
2018-11-12T13:52:49.656Z,14.00
2018-11-12T13:55:19.262Z,13.90
2018-11-12T13:57:47.994Z,13.90
2018-11-12T14:00:17.797Z,13.90
2018-11-12T14:02:47.136Z,13.80
2018-11-12T14:05:17.012Z,13.80
2018-11-12T14:07:45.785Z,13.70
2018-11-12T14:10:16.710Z,13.60
2018-11-12T14:12:45.486Z,13.50
2018-11-12T14:15:15.610Z,13.50
2018-11-12T14:17:44.322Z,13.40
2018-11-12T14:20:13.092Z,13.30
2018-11-12T14:22:41.555Z,13.20
2018-11-12T14:25:11.503Z,13.20
2018-11-12T14:27:40.184Z,13.20
2018-11-12T14:30:10.710Z,13.10
2018-11-12T14:32:39.392Z,13.10
2018-11-12T14:35:08.562Z,13.10
2018-11-12T14:37:37.259Z,13.00
2018-11-12T14:40:06.926Z,13.00
2018-11-12T14:42:35.523Z,13.00
2018-11-12T14:45:04.347Z,12.90
2018-11-12T14:47:33.060Z,12.90
2018-11-12T14:50:01.914Z,12.80
2018-11-12T14:52:30.479Z,12.80
2018-11-12T14:54:59.092Z,12.80
2018-11-12T14:57:27.527Z,12.70
2018-11-12T14:59:56.052Z,12.60
2018-11-12T15:02:24.588Z,12.60
2018-11-12T15:04:53.162Z,12.50
2018-11-12T15:07:21.783Z,12.50
2018-11-12T15:09:50.362Z,12.50
2018-11-12T15:12:18.917Z,12.30
2018-11-12T15:14:47.588Z,12.30
2018-11-12T15:17:16.024Z,12.30
2018-11-12T15:19:44.509Z,12.30
2018-11-12T15:22:12.997Z,12.20
2018-11-12T15:24:41.462Z,12.20
2018-11-12T15:27:10.038Z,12.20
2018-11-12T15:29:38.554Z,12.20
2018-11-12T15:32:07.650Z,12.20
2018-11-12T15:34:36.107Z,12.10
2018-11-12T15:37:04.779Z,12.10
2018-11-12T15:39:33.544Z,12.00
2018-11-12T15:42:02.146Z,12.00
2018-11-12T15:44:30.765Z,12.00
2018-11-12T15:46:59.345Z,11.90
2018-11-12T15:49:27.867Z,11.90
2018-11-12T15:51:56.402Z,11.90
2018-11-12T15:54:25.127Z,11.90
2018-11-12T15:56:54.625Z,11.90
2018-11-12T15:59:23.126Z,11.80
2018-11-12T16:01:51.839Z,11.80
2018-11-12T16:04:20.316Z,11.80
2018-11-12T16:06:48.940Z,11.70
2018-11-12T16:09:17.407Z,11.70
2018-11-12T16:11:46.210Z,11.60
2018-11-12T16:14:15.994Z,11.60
2018-11-12T16:16:44.713Z,11.60
2018-11-12T16:19:13.310Z,11.50
2018-11-12T16:21:41.745Z,11.50
2018-11-12T16:24:10.329Z,11.40
2018-11-12T16:26:38.886Z,11.40
2018-11-12T16:29:07.491Z,11.40
2018-11-12T16:31:36.007Z,11.50
2018-11-12T16:34:04.547Z,11.50
2018-11-12T16:36:33.120Z,11.50
2018-11-12T16:39:01.628Z,11.50
2018-11-12T16:41:30.099Z,11.50
2018-11-12T16:43:58.622Z,11.50
2018-11-12T16:46:27.153Z,11.50
2018-11-12T16:48:55.838Z,11.50
2018-11-12T16:51:24.383Z,11.40
2018-11-12T16:53:52.956Z,11.40
2018-11-12T16:56:21.805Z,11.30
2018-11-12T16:58:50.428Z,11.30
2018-11-12T17:01:18.966Z,11.30
2018-11-12T17:03:47.464Z,11.30
2018-11-12T17:06:16.058Z,11.20
2018-11-12T17:08:44.540Z,11.20
2018-11-12T17:11:13.089Z,11.10
2018-11-12T17:13:41.626Z,11.10
2018-11-12T17:16:10.222Z,11.00
2018-11-12T17:18:38.758Z,11.00
2018-11-12T17:21:07.403Z,10.90
2018-11-12T17:23:35.950Z,10.80
2018-11-12T17:26:04.551Z,10.70
2018-11-12T17:28:33.057Z,10.80
2018-11-12T17:31:01.679Z,10.80
2018-11-12T17:33:30.363Z,10.80
2018-11-12T17:35:58.871Z,10.80
2018-11-12T17:38:27.467Z,10.60
2018-11-12T17:40:55.949Z,10.60
2018-11-12T17:43:24.498Z,10.60
2018-11-12T17:45:52.930Z,10.60
2018-11-12T17:48:21.403Z,10.60
2018-11-12T17:50:49.910Z,10.50
2018-11-12T17:53:19.003Z,10.40
2018-11-12T17:55:47.512Z,10.40
2018-11-12T17:58:16.044Z,10.40
2018-11-12T18:00:44.549Z,10.40
2018-11-12T18:03:13.086Z,10.30
2018-11-12T18:05:41.595Z,10.20
2018-11-12T18:08:10.207Z,10.20
2018-11-12T18:10:38.696Z,10.20
2018-11-12T18:13:07.238Z,10.20
2018-11-12T18:15:35.806Z,10.10
2018-11-12T18:18:04.438Z,10.20
2018-11-12T18:20:33.012Z,10.10
2018-11-12T18:23:01.737Z,10.10
2018-11-12T18:25:30.340Z,10.10
2018-11-12T18:27:58.849Z,10.00
2018-11-12T18:30:29.082Z,10.00
2018-11-12T18:32:58.152Z,10.00
2018-11-12T18:35:26.954Z,10.00
2018-11-12T18:37:55.823Z,9.90
2018-11-12T18:40:25.741Z,9.90
2018-11-12T18:42:54.243Z,9.90
2018-11-12T18:45:24.002Z,9.90
2018-11-12T18:47:52.720Z,9.90
2018-11-12T18:50:23.441Z,9.90
2018-11-12T18:52:51.985Z,9.90
2018-11-12T18:55:20.531Z,9.90
2018-11-12T18:57:49.476Z,9.90
2018-11-12T19:00:19.339Z,9.80
2018-11-12T19:02:48.204Z,9.70
2018-11-12T19:05:18.522Z,9.80
2018-11-12T19:07:48.116Z,9.70
2018-11-12T19:10:18.094Z,9.70
2018-11-12T19:12:47.034Z,9.70
2018-11-12T19:15:16.964Z,9.70
2018-11-12T19:17:46.577Z,9.60
2018-11-12T19:20:16.039Z,9.60
2018-11-12T19:22:45.283Z,9.60
2018-11-12T19:25:14.207Z,9.60
2018-11-12T19:27:43.228Z,9.60
2018-11-12T19:30:17.820Z,9.60
2018-11-12T19:32:46.430Z,9.60
2018-11-12T19:35:16.199Z,9.60
2018-11-12T19:37:44.851Z,9.60
2018-11-12T19:40:14.798Z,9.60
2018-11-12T19:42:43.957Z,9.60
2018-11-12T19:45:13.916Z,9.60
2018-11-12T19:47:43.565Z,9.70
2018-11-12T19:50:14.476Z,9.70
2018-11-12T19:52:45.339Z,9.70
2018-11-12T19:55:15.008Z,9.60
2018-11-12T19:57:43.891Z,9.60
2018-11-12T20:00:14.138Z,9.60
2018-11-12T20:02:43.886Z,9.60
2018-11-12T20:05:12.954Z,9.70
2018-11-12T20:07:43.028Z,9.60
2018-11-12T20:10:14.606Z,9.60
2018-11-12T20:12:43.825Z,9.60
2018-11-12T20:15:14.707Z,9.60
2018-11-12T20:17:44.210Z,9.50
2018-11-12T20:20:15.157Z,9.50
2018-11-12T20:22:44.210Z,9.50
2018-11-12T20:25:14.171Z,9.50
2018-11-12T20:27:42.976Z,9.50
2018-11-12T20:30:15.346Z,9.40
2018-11-12T20:32:44.003Z,9.40
2018-11-12T20:35:12.491Z,9.50
2018-11-12T20:37:41.048Z,9.40
2018-11-12T20:40:10.704Z,9.40
2018-11-12T20:42:39.234Z,9.40
2018-11-12T20:45:09.569Z,9.40
2018-11-12T20:47:39.278Z,9.30
2018-11-12T20:50:08.320Z,9.30
2018-11-12T20:52:37.031Z,9.30
2018-11-12T20:55:06.554Z,9.30
2018-11-12T20:57:35.076Z,9.30
2018-11-12T21:00:03.627Z,9.30
2018-11-12T21:02:32.146Z,9.20
2018-11-12T21:05:00.696Z,9.20
2018-11-12T21:07:29.182Z,9.20
2018-11-12T21:09:57.767Z,9.20
2018-11-12T21:12:26.306Z,9.20
2018-11-12T21:14:55.588Z,9.20
2018-11-12T21:17:24.190Z,9.10
2018-11-12T21:19:52.740Z,9.10
2018-11-12T21:22:21.445Z,9.20
2018-11-12T21:24:49.982Z,9.10
2018-11-12T21:27:18.522Z,9.10
2018-11-12T21:29:47.124Z,9.10
2018-11-12T21:32:16.015Z,9.10
2018-11-12T21:34:45.214Z,9.00
2018-11-12T21:37:16.304Z,9.00
2018-11-12T21:39:46.039Z,9.00
2018-11-12T21:42:14.904Z,9.10
2018-11-12T21:44:43.786Z,9.00
2018-11-12T21:47:12.299Z,9.00
2018-11-12T21:49:40.866Z,9.00
2018-11-12T21:52:09.379Z,9.00
2018-11-12T21:54:38.029Z,9.00
2018-11-12T21:57:06.719Z,9.00
2018-11-12T21:59:35.328Z,9.00
2018-11-12T22:02:06.544Z,9.00
2018-11-12T22:04:35.259Z,9.00
2018-11-12T22:07:03.957Z,9.00
2018-11-12T22:09:32.520Z,9.00
2018-11-12T22:12:01.094Z,9.00
2018-11-12T22:14:29.713Z,9.00
2018-11-12T22:16:58.259Z,9.00
2018-11-12T22:19:26.873Z,9.00
2018-11-12T22:21:55.382Z,9.00
2018-11-12T22:24:24.000Z,9.00
2018-11-12T22:26:52.600Z,8.90
2018-11-12T22:29:21.155Z,9.00
2018-11-12T22:31:49.730Z,8.90
2018-11-12T22:34:18.244Z,9.00
2018-11-12T22:36:46.882Z,9.00
2018-11-12T22:39:15.378Z,9.00
2018-11-12T22:41:43.915Z,8.90
2018-11-12T22:44:12.507Z,9.00
2018-11-12T22:46:41.076Z,9.00
2018-11-12T22:49:09.699Z,8.90
2018-11-12T22:51:38.259Z,8.90
2018-11-12T22:54:07.433Z,8.90
2018-11-12T22:56:35.910Z,8.90
2018-11-12T22:59:05.151Z,8.90
2018-11-12T23:01:33.692Z,8.90
2018-11-12T23:04:02.325Z,8.90
2018-11-12T23:06:30.898Z,8.80
2018-11-12T23:08:59.499Z,8.80
2018-11-12T23:11:28.018Z,8.80
2018-11-12T23:13:56.611Z,8.80
2018-11-12T23:16:25.200Z,8.80
2018-11-12T23:18:53.708Z,8.80
2018-11-12T23:21:22.295Z,8.80
2018-11-12T23:23:50.834Z,8.80
2018-11-12T23:26:19.314Z,8.80
2018-11-12T23:28:47.790Z,8.80
2018-11-12T23:31:16.279Z,8.80
2018-11-12T23:33:44.748Z,8.80
2018-11-12T23:36:13.268Z,8.70
2018-11-12T23:38:41.734Z,8.70
2018-11-12T23:41:10.241Z,8.70
2018-11-12T23:43:38.926Z,8.70
2018-11-12T23:46:07.694Z,8.70
2018-11-12T23:48:36.171Z,8.70
2018-11-12T23:51:04.956Z,8.70
2018-11-12T23:53:33.467Z,8.70
2018-11-12T23:56:01.997Z,8.70
2018-11-12T23:58:30.472Z,8.70
